Time;durP1;ratioP1;P1;durP2;ratioP2;P2;SDS_P1;SDS_P2;PMS_P1;PMS_P2;Temp;Humidity;BMP_temperature;BMP_pressure;BME280_temperature;BME280_humidity;BME280_pressure;Samples;Min_cycle;Max_cycle;Signal;HPM_P1;HPM_P2
2021/04/01 00:02:12;;;;;;;10.32;4.50;;;11.80;64.10;;;;;;5053057;28;20383;-73
2021/04/01 00:04:38;;;;;;;8.77;4.82;;;11.80;63.80;;;;;;5035362;28;20021;-73
2021/04/01 00:07:04;;;;;;;10.75;4.82;;;11.70;63.90;;;;;;5052900;28;20020;-73
2021/04/01 00:09:30;;;;;;;13.77;4.95;;;11.60;64.10;;;;;;5052974;28;20493;-73
2021/04/01 00:11:56;;;;;;;12.07;4.88;;;11.60;64.70;;;;;;5052909;28;20063;-73
2021/04/01 00:14:24;;;;;;;9.88;4.82;;;11.50;64.70;;;;;;5052873;28;20043;-73
2021/04/01 00:16:50;;;;;;;12.43;5.05;;;11.40;65.30;;;;;;5052795;28;20062;-73
2021/04/01 00:19:16;;;;;;;14.25;4.85;;;11.40;65.10;;;;;;5052632;28;20059;-73
2021/04/01 00:21:42;;;;;;;13.38;4.30;;;11.40;65.00;;;;;;5052650;28;20033;-73
2021/04/01 00:24:08;;;;;;;14.00;4.65;;;11.40;65.30;;;;;;5034813;28;20024;-73
2021/04/01 00:26:33;;;;;;;9.82;4.53;;;11.40;65.30;;;;;;5034969;28;20465;-73
2021/04/01 00:28:59;;;;;;;12.55;5.47;;;11.50;65.10;;;;;;5052773;28;20024;-73
2021/04/01 00:31:25;;;;;;;7.78;4.78;;;11.20;65.20;;;;;;5052521;28;20033;-73
2021/04/01 00:33:51;;;;;;;11.63;5.10;;;10.80;66.30;;;;;;5052533;28;20504;-73
2021/04/01 00:36:17;;;;;;;14.23;4.68;;;10.60;67.40;;;;;;5052372;28;20146;-72
2021/04/01 00:38:42;;;;;;;18.35;4.88;;;10.60;67.70;;;;;;5034354;28;20112;-71
2021/04/01 00:41:08;;;;;;;11.88;4.80;;;10.40;68.50;;;;;;5052356;28;20025;-72
2021/04/01 00:43:34;;;;;;;14.68;4.25;;;10.60;68.50;;;;;;5052372;28;20435;-73
2021/04/01 00:46:00;;;;;;;10.68;4.28;;;10.30;68.50;;;;;;5034413;28;20025;-73
2021/04/01 00:48:25;;;;;;;9.52;5.05;;;10.30;69.40;;;;;;5052175;28;20031;-73
2021/04/01 00:50:51;;;;;;;9.63;3.75;;;10.60;68.90;;;;;;5052094;28;20047;-73
2021/04/01 00:53:17;;;;;;;10.63;4.70;;;10.60;68.70;;;;;;5034308;28;20477;-73
2021/04/01 00:55:43;;;;;;;15.68;4.50;;;10.80;68.20;;;;;;5052021;28;20033;-73
2021/04/01 00:58:08;;;;;;;14.70;4.93;;;10.90;67.30;;;;;;5052000;28;20021;-73
2021/04/01 01:00:35;;;;;;;7.78;4.25;;;10.70;67.80;;;;;;5052391;28;20016;-73
2021/04/01 01:03:02;;;;;;;15.10;4.50;;;10.60;68.30;;;;;;5052519;28;20025;-72
2021/04/01 01:05:30;;;;;;;11.27;4.50;;;10.50;68.70;;;;;;5051979;28;20465;-73
2021/04/01 01:07:56;;;;;;;16.58;4.68;;;10.40;68.90;;;;;;5051902;28;20013;-73
2021/04/01 01:10:29;;;;;;;10.70;4.05;;;10.40;69.20;;;;;;5051231;28;20021;-72
2021/04/01 01:12:57;;;;;;;13.80;4.20;;;10.30;69.30;;;;;;5051968;28;20023;-73
2021/04/01 01:15:23;;;;;;;17.83;4.55;;;10.40;68.90;;;;;;5051831;28;20051;-73
2021/04/01 01:17:52;;;;;;;17.40;4.60;;;10.40;68.90;;;;;;5052144;28;20017;-72
2021/04/01 01:20:22;;;;;;;13.10;4.32;;;10.50;68.80;;;;;;5051786;28;20492;-72
2021/04/01 01:22:50;;;;;;;11.68;5.10;;;10.50;68.80;;;;;;5051915;28;20021;-72
2021/04/01 01:25:16;;;;;;;13.75;4.65;;;10.40;68.90;;;;;;5051824;28;20492;-73
2021/04/01 01:27:42;;;;;;;17.80;3.70;;;10.20;69.40;;;;;;5051890;28;20464;-72
2021/04/01 01:30:14;;;;;;;19.17;5.60;;;10.30;69.50;;;;;;5051770;28;20055;-72
2021/04/01 01:32:43;;;;;;;9.23;4.30;;;10.30;69.40;;;;;;5034130;28;20025;-72
2021/04/01 01:35:24;;;;;;;15.65;5.05;;;10.30;69.20;;;;;;5051759;28;20044;-73
2021/04/01 01:37:55;;;;;;;18.95;4.85;;;10.40;69.00;;;;;;5051698;28;20135;-72
2021/04/01 01:40:23;;;;;;;15.50;4.78;;;10.30;69.00;;;;;;5051724;28;20025;-73
2021/04/01 01:42:50;;;;;;;10.45;4.45;;;10.30;69.10;;;;;;5051638;28;20445;-73
2021/04/01 01:45:17;;;;;;;13.13;4.38;;;10.30;69.20;;;;;;5051633;28;20021;-73
2021/04/01 01:47:42;;;;;;;15.50;5.10;;;10.30;69.20;;;;;;5051635;28;20500;-72
2021/04/01 01:50:11;;;;;;;9.88;4.30;;;10.40;69.10;;;;;;5033715;28;20047;-73
2021/04/01 01:52:38;;;;;;;15.25;4.97;;;10.30;69.10;;;;;;5033715;28;20037;-73
2021/04/01 01:55:06;;;;;;;13.43;5.03;;;10.30;69.00;;;;;;5051415;28;20388;-73
2021/04/01 01:57:33;;;;;;;17.52;4.63;;;10.30;68.70;;;;;;5051575;28;20029;-73
2021/04/01 02:00:00;;;;;;;8.63;4.72;;;10.20;69.20;;;;;;5051369;28;20037;-71
2021/04/01 02:02:26;;;;;;;7.32;3.97;;;10.00;69.70;;;;;;5051816;28;20032;-73
2021/04/01 02:04:52;;;;;;;7.85;4.00;;;10.10;69.80;;;;;;5051395;28;20382;-72
2021/04/01 02:07:17;;;;;;;17.55;4.65;;;10.20;69.70;;;;;;5051492;28;20017;-73
2021/04/01 02:09:47;;;;;;;17.63;4.68;;;10.30;69.10;;;;;;5051406;28;20098;-73
2021/04/01 02:12:15;;;;;;;8.93;4.20;;;10.20;69.00;;;;;;5051428;28;20111;-73
2021/04/01 02:14:42;;;;;;;12.70;4.65;;;10.20;69.10;;;;;;5051424;28;20025;-73
2021/04/01 02:17:09;;;;;;;10.38;4.50;;;10.30;69.00;;;;;;5051328;28;20021;-73
2021/04/01 02:19:35;;;;;;;8.60;4.45;;;10.50;68.10;;;;;;5051085;28;20028;-73
2021/04/01 02:22:01;;;;;;;8.63;4.38;;;10.30;68.40;;;;;;5053757;28;20534;-73
2021/04/01 02:24:26;;;;;;;15.23;5.72;;;10.30;68.90;;;;;;5055025;28;20055;-73
2021/04/01 02:26:56;;;;;;;10.95;5.55;;;10.20;68.70;;;;;;5055138;28;20032;-72
2021/04/01 02:29:25;;;;;;;21.50;5.82;;;10.30;68.70;;;;;;5054772;28;20111;-73
2021/04/01 02:31:50;;;;;;;10.07;4.30;;;10.40;68.40;;;;;;5054818;28;20059;-73
2021/04/01 02:34:16;;;;;;;11.48;3.97;;;10.50;67.90;;;;;;5036867;28;20056;-73
2021/04/01 02:36:43;;;;;;;10.27;5.32;;;10.20;68.30;;;;;;5054532;28;20025;-72
2021/04/01 02:39:09;;;;;;;16.13;4.10;;;10.10;69.20;;;;;;5054760;28;20519;-73
2021/04/01 02:41:35;;;;;;;13.15;4.32;;;10.10;69.10;;;;;;5054620;28;20032;-73
2021/04/01 02:44:01;;;;;;;9.27;4.30;;;10.10;69.20;;;;;;5054598;28;20029;-72
2021/04/01 02:46:26;;;;;;;13.32;4.38;;;10.00;69.20;;;;;;5054565;28;20025;-73
2021/04/01 02:48:52;;;;;;;13.40;4.70;;;10.10;69.60;;;;;;5054412;28;20033;-73
2021/04/01 02:51:18;;;;;;;8.52;3.33;;;10.10;69.40;;;;;;5054440;28;20435;-72
2021/04/01 02:53:44;;;;;;;12.63;4.28;;;10.20;69.10;;;;;;5054420;28;20052;-73
2021/04/01 02:56:09;;;;;;;16.83;5.05;;;10.20;69.10;;;;;;5054250;28;20482;-73
2021/04/01 02:58:37;;;;;;;11.18;5.32;;;10.10;69.30;;;;;;5036320;28;20059;-73
2021/04/01 03:01:03;;;;;;;15.80;4.45;;;10.10;69.60;;;;;;5054178;28;20014;-73
2021/04/01 03:03:35;;;;;;;10.65;4.53;;;9.90;69.80;;;;;;5054247;28;20092;-72
2021/04/01 03:06:02;;;;;;;12.85;5.03;;;9.90;70.30;;;;;;5054204;28;20472;-73
2021/04/01 03:08:28;;;;;;;10.88;4.43;;;10.10;69.80;;;;;;5054150;28;20036;-73
2021/04/01 03:10:53;;;;;;;7.18;4.20;;;10.10;69.60;;;;;;5054074;28;20029;-73
2021/04/01 03:13:19;;;;;;;12.27;4.53;;;10.10;69.50;;;;;;5035997;28;20496;-73
2021/04/01 03:15:45;;;;;;;11.50;4.65;;;10.10;69.00;;;;;;5053889;28;20029;-72
2021/04/01 03:18:10;;;;;;;15.32;5.28;;;9.90;69.50;;;;;;5053708;28;20570;-72
2021/04/01 03:20:36;;;;;;;7.85;3.88;;;9.80;70.00;;;;;;5053798;28;20025;-72
2021/04/01 03:23:02;;;;;;;12.43;4.40;;;9.70;70.60;;;;;;5053758;28;20557;-73
2021/04/01 03:25:28;;;;;;;14.85;4.75;;;9.80;70.40;;;;;;5053819;28;20074;-73
2021/04/01 03:27:54;;;;;;;9.25;4.05;;;9.80;70.30;;;;;;5054042;28;20472;-73
2021/04/01 03:30:20;;;;;;;15.07;4.18;;;9.90;70.00;;;;;;5054011;28;20045;-73
2021/04/01 03:32:47;;;;;;;12.65;4.85;;;10.00;69.60;;;;;;5053010;28;20417;-73
2021/04/01 03:35:15;;;;;;;11.05;4.40;;;10.00;69.50;;;;;;5053519;28;20500;-73
2021/04/01 03:37:43;;;;;;;10.38;4.03;;;9.70;70.20;;;;;;5035714;28;20464;-72
2021/04/01 03:40:09;;;;;;;11.07;4.00;;;9.60;70.90;;;;;;5053430;28;20025;-73
2021/04/01 03:42:37;;;;;;;11.00;4.60;;;9.60;71.00;;;;;;5035562;28;20512;-73
2021/04/01 03:45:04;;;;;;;18.92;3.72;;;9.60;71.00;;;;;;5053468;28;20303;-72
2021/04/01 03:47:30;;;;;;;21.55;4.75;;;9.70;70.80;;;;;;5053449;28;20029;-73
2021/04/01 03:49:56;;;;;;;16.65;4.00;;;9.80;70.60;;;;;;5053391;28;20083;-72
2021/04/01 03:52:21;;;;;;;11.35;4.10;;;9.70;70.40;;;;;;5053268;28;20063;-73
2021/04/01 03:54:52;;;;;;;12.10;5.85;;;9.70;70.50;;;;;;5053144;28;20031;-73
2021/04/01 03:57:18;;;;;;;13.73;4.22;;;9.70;70.60;;;;;;5053210;28;20021;-73
2021/04/01 03:59:50;;;;;;;8.35;4.40;;;9.80;70.60;;;;;;5034994;28;20025;-73
2021/04/01 04:17:37;;;;;;;12.52;3.92;;;9.60;70.90;;;;;;5034792;28;20060;-72
2021/04/01 04:20:05;;;;;;;8.57;4.05;;;9.70;70.50;;;;;;5052458;28;20032;-72
2021/04/01 04:22:31;;;;;;;15.95;3.95;;;9.70;70.40;;;;;;5052662;28;20021;-73
2021/04/01 04:24:56;;;;;;;13.15;3.80;;;9.80;70.20;;;;;;5034748;28;20473;-72
2021/04/01 04:30:00;;;;;;;15.27;4.50;;;9.60;70.60;;;;;;5052526;28;20432;-73
2021/04/01 04:32:31;;;;;;;9.52;3.53;;;9.70;70.50;;;;;;5052508;28;20404;-73
2021/04/01 04:34:57;;;;;;;14.05;5.10;;;9.60;70.40;;;;;;5052449;28;20028;-72
2021/04/01 04:37:23;;;;;;;12.65;3.90;;;9.60;70.60;;;;;;5052172;28;20036;-72
2021/04/01 04:39:49;;;;;;;10.20;4.18;;;9.60;70.50;;;;;;5052233;28;20021;-71
2021/04/01 04:42:15;;;;;;;14.90;4.05;;;9.70;70.30;;;;;;5052285;28;20473;-73
2021/04/01 04:44:40;;;;;;;16.25;4.18;;;9.70;70.20;;;;;;5051254;28;20112;-73
2021/04/01 04:47:06;;;;;;;7.40;3.90;;;9.60;70.00;;;;;;5052186;28;20025;-72
2021/04/01 04:49:32;;;;;;;11.77;5.15;;;9.70;69.90;;;;;;5052104;28;20108;-73
2021/04/01 04:51:59;;;;;;;16.52;5.32;;;9.90;69.70;;;;;;5052268;28;20021;-73
2021/04/01 04:54:29;;;;;;;18.65;4.57;;;9.90;69.30;;;;;;5052107;28;20055;-73
2021/04/01 04:56:57;;;;;;;13.15;4.70;;;10.00;69.10;;;;;;5052055;28;20481;-73
2021/04/01 05:07:09;;;;;;;12.80;4.15;;;9.80;69.00;;;;;;5053283;28;20926;-71
2021/04/01 05:09:34;;;;;;;13.02;5.22;;;9.90;69.00;;;;;;5051760;28;20431;-72
2021/04/01 05:12:00;;;;;;;13.73;4.32;;;9.90;68.90;;;;;;5051808;28;20384;-73
2021/04/01 05:14:26;;;;;;;11.18;3.83;;;9.90;69.50;;;;;;5034091;28;20029;-72
2021/04/01 05:16:52;;;;;;;33.13;5.63;;;9.90;69.00;;;;;;5051817;28;20506;-73
2021/04/01 05:19:19;;;;;;;12.73;4.40;;;9.80;69.60;;;;;;5051339;28;20040;-73
2021/04/01 05:22:20;;;;;;;11.18;4.57;;;9.80;69.60;;;;;;5051971;28;20465;-73
2021/04/01 05:24:37;;;;;;;;;;;10.00;69.10;;;;;;5047833;28;20029;-72
2021/04/01 05:27:09;;;;;;;10.43;3.90;;;10.10;68.50;;;;;;5051794;28;19912;-72
2021/04/01 05:29:39;;;;;;;12.10;4.22;;;10.20;68.20;;;;;;5050620;28;20103;-72
2021/04/01 05:32:06;;;;;;;12.73;4.40;;;10.30;67.20;;;;;;5051224;28;20035;-72
2021/04/01 05:34:32;;;;;;;18.38;4.50;;;10.40;67.60;;;;;;5050937;28;20041;-72
2021/04/01 05:36:59;;;;;;;56.97;6.15;;;10.40;67.10;;;;;;5051039;28;20029;-72
2021/04/01 05:39:43;;;;;;;30.77;4.53;;;10.40;67.50;;;;;;5051171;28;20029;-72
2021/04/01 05:42:09;;;;;;;19.60;4.32;;;10.50;67.30;;;;;;5050989;28;20377;-72
2021/04/01 05:49:42;;;;;;;16.73;3.90;;;10.60;66.40;;;;;;5050876;28;20063;-73
2021/04/01 06:03:31;;;;;;;14.00;4.55;;;10.40;67.20;;;;;;5054704;28;20024;-72
2021/04/01 06:06:06;;;;;;;12.23;3.80;;;10.50;67.20;;;;;;5017337;28;20061;-72
2021/04/01 06:08:46;;;;;;;8.52;4.53;;;10.50;67.10;;;;;;5048199;28;20021;-73
2021/04/01 06:11:12;;;;;;;17.63;4.82;;;10.50;66.80;;;;;;5051392;28;20040;-72
2021/04/01 06:13:57;;;;;;;16.50;4.57;;;10.60;66.80;;;;;;5036734;28;20036;-72
2021/04/01 06:16:24;;;;;;;16.70;4.32;;;10.60;66.50;;;;;;5006831;28;20029;-72
2021/04/01 06:18:54;;;;;;;20.05;3.95;;;10.60;67.00;;;;;;5020151;28;20028;-72
2021/04/01 06:21:24;;;;;;;19.83;5.13;;;10.50;66.80;;;;;;5054218;28;20017;-72
2021/04/01 06:24:12;;;;;;;13.82;4.03;;;10.60;66.70;;;;;;5054371;28;20037;-72
2021/04/01 06:26:44;;;;;;;27.45;4.45;;;10.50;66.80;;;;;;5054053;28;20025;-72
2021/04/01 06:29:16;;;;;;;26.55;4.68;;;10.60;67.30;;;;;;5034777;28;20033;-72
2021/04/01 06:31:43;;;;;;;;;;;10.60;67.20;;;;;;5051564;28;20031;-71
2021/04/01 06:34:10;;;;;;;50.30;7.18;;;10.60;67.30;;;;;;5054294;28;19904;-72
2021/04/01 06:36:48;;;;;;;44.13;5.18;;;10.60;67.50;;;;;;5053871;28;20035;-72
2021/04/01 06:39:21;;;;;;;24.75;6.25;;;10.80;67.50;;;;;;5054265;28;20523;-72
2021/04/01 06:41:49;;;;;;;32.60;5.93;;;11.00;66.60;;;;;;5054302;28;20381;-72
2021/04/01 06:44:44;;;;;;;29.77;5.40;;;11.20;66.10;;;;;;5054059;28;20021;-72
2021/04/01 06:47:15;;;;;;;31.80;5.47;;;11.40;65.30;;;;;;5054053;28;20047;-72
2021/04/01 06:50:05;;;;;;;16.85;4.35;;;11.50;64.90;;;;;;5049789;28;20420;-72
2021/04/01 06:52:38;;;;;;;18.77;5.82;;;11.70;64.30;;;;;;5053812;28;20033;-73
2021/04/01 06:55:17;;;;;;;14.38;4.68;;;11.90;64.40;;;;;;5053806;28;20053;-73
2021/04/01 06:58:04;;;;;;;22.63;5.25;;;12.00;64.00;;;;;;5053735;28;20021;-72
2021/04/01 07:08:14;;;;;;;13.70;3.88;;;12.50;61.30;;;;;;5052619;28;20303;-73
2021/04/01 07:13:22;;;;;;;14.50;4.22;;;12.70;59.40;;;;;;5053431;28;20416;-73
2021/04/01 07:15:50;;;;;;;;;;;12.90;59.20;;;;;;5054068;28;20025;-72
2021/04/01 07:48:19;;;;;;;12.05;4.85;;;14.50;54.00;;;;;;5052571;28;20162;-73
2021/04/01 07:50:45;;;;;;;9.38;4.18;;;14.60;54.40;;;;;;5052494;28;20024;-73
2021/04/01 07:53:14;;;;;;;15.95;4.25;;;14.70;53.40;;;;;;5052761;28;20013;-73
2021/04/01 08:06:20;;;;;;;14.18;3.95;;;15.40;51.20;;;;;;5052575;28;20017;-73
2021/04/01 08:08:49;;;;;;;12.85;4.57;;;15.60;50.90;;;;;;5052299;28;20174;-73
2021/04/01 08:11:25;;;;;;;7.53;3.70;;;15.70;50.00;;;;;;5052252;28;20401;-72
2021/04/01 08:14:05;;;;;;;10.85;3.65;;;15.80;50.60;;;;;;5051764;28;20028;-73
2021/04/01 08:16:37;;;;;;;20.02;4.55;;;16.00;49.70;;;;;;5051920;28;20017;-72
2021/04/01 08:19:04;;;;;;;19.50;4.50;;;16.10;49.70;;;;;;5051724;28;20029;-72
2021/04/01 08:21:30;;;;;;;10.70;3.85;;;16.30;49.50;;;;;;5052182;28;20488;-72
2021/04/01 08:24:04;;;;;;;35.13;4.85;;;16.30;49.20;;;;;;5051959;28;20033;-72
2021/04/01 08:36:47;;;;;;;35.80;5.93;;;17.30;46.60;;;;;;5051340;28;20029;-73
2021/04/01 08:39:15;;;;;;;68.18;7.13;;;17.60;46.70;;;;;;5051015;28;20028;-72
2021/04/01 08:41:56;;;;;;;25.88;5.38;;;17.80;45.90;;;;;;5050931;28;20425;-72
2021/04/01 08:44:28;;;;;;;10.43;4.00;;;17.90;45.00;;;;;;5051679;28;20029;-72
2021/04/01 08:47:19;;;;;;;20.02;5.47;;;18.00;45.20;;;;;;5051059;28;20025;-72
2021/04/01 08:50:09;;;;;;;16.77;4.57;;;18.10;44.20;;;;;;5051347;28;20116;-72
2021/04/01 08:53:00;;;;;;;21.70;5.55;;;18.40;44.40;;;;;;5051179;28;20029;-72
2021/04/01 08:56:26;;;;;;;26.63;6.20;;;18.90;44.00;;;;;;5033601;28;20032;-72
2021/04/01 08:59:10;;;;;;;16.90;6.10;;;19.20;42.90;;;;;;5047256;28;20380;-72
2021/04/01 09:01:39;;;;;;;20.35;6.30;;;19.20;42.20;;;;;;5051028;28;20013;-72
2021/04/01 09:04:05;;;;;;;18.50;6.43;;;19.00;41.80;;;;;;5050610;28;20029;-73
2021/04/01 09:06:36;;;;;;;24.45;7.82;;;18.90;42.30;;;;;;5051145;28;20029;-73
2021/04/01 09:09:25;;;;;;;24.77;7.13;;;19.30;42.70;;;;;;5033183;28;20028;-73
2021/04/01 09:12:01;;;;;;;30.42;8.30;;;19.90;41.70;;;;;;5051420;28;20051;-73
2021/04/01 09:14:35;;;;;;;23.92;8.27;;;20.30;41.00;;;;;;5050801;28;20484;-74
2021/04/01 09:17:08;;;;;;;35.17;8.20;;;20.50;40.20;;;;;;5051269;28;20499;-72
2021/04/01 09:19:37;;;;;;;26.38;6.72;;;20.50;40.80;;;;;;5051050;28;20032;-72
2021/04/01 09:22:26;;;;;;;23.95;7.50;;;21.00;40.70;;;;;;5050911;28;20017;-72
2021/04/01 09:24:57;;;;;;;19.90;7.53;;;21.30;40.60;;;;;;5033032;28;20433;-71
2021/04/01 09:27:23;;;;;;;22.70;8.60;;;21.50;39.60;;;;;;5046470;28;20100;-72
2021/04/01 09:30:00;;;;;;;17.23;7.32;;;21.60;39.50;;;;;;5050951;28;20154;-72
2021/04/01 09:32:27;;;;;;;17.80;7.38;;;22.00;40.90;;;;;;5054368;28;20481;-72
2021/04/01 09:34:54;;;;;;;21.00;8.73;;;22.20;38.30;;;;;;5036967;28;20017;-73
2021/04/01 09:37:20;;;;;;;26.15;7.75;;;22.50;39.20;;;;;;5054171;28;20545;-72
2021/04/01 09:39:46;;;;;;;15.73;7.95;;;22.60;38.10;;;;;;5054787;28;20369;-72
2021/04/01 09:42:15;;;;;;;20.30;7.68;;;23.00;37.90;;;;;;5037091;28;20033;-73
2021/04/01 09:45:01;;;;;;;23.08;8.32;;;23.30;37.30;;;;;;5035284;28;20392;-72
2021/04/01 09:47:34;;;;;;;36.00;8.73;;;23.30;36.50;;;;;;5037065;28;20021;-73
2021/04/01 09:50:03;;;;;;;23.95;8.45;;;23.10;36.80;;;;;;5054450;28;20629;-73
2021/04/01 09:52:30;;;;;;;20.38;8.65;;;23.30;36.30;;;;;;5049731;28;20078;-72
2021/04/01 09:55:03;;;;;;;20.23;8.70;;;23.80;36.70;;;;;;5036437;28;20114;-73
2021/04/01 09:57:46;;;;;;;20.88;9.65;;;24.30;35.50;;;;;;5036899;28;20063;-72
2021/04/01 10:00:37;;;;;;;30.20;9.70;;;24.40;34.10;;;;;;5054347;28;20159;-73
2021/04/01 10:03:15;;;;;;;19.52;10.45;;;24.70;33.90;;;;;;5050860;28;20060;-74
2021/04/01 10:05:46;;;;;;;29.33;9.90;;;24.50;32.90;;;;;;5054702;28;20432;-74
2021/04/01 10:08:21;;;;;;;;;;;23.60;34.60;;;;;;5055099;28;20377;-73
2021/04/01 10:10:49;;;;;;;24.25;10.23;;;24.00;34.60;;;;;;5054768;28;19909;-73
2021/04/01 10:13:26;;;;;;;19.63;10.27;;;24.70;33.50;;;;;;5054288;28;20028;-75
2021/04/01 10:15:54;;;;;;;24.50;9.82;;;24.80;33.60;;;;;;5050568;28;20029;-74
2021/04/01 10:18:31;;;;;;;37.25;11.30;;;25.20;32.90;;;;;;5054431;28;20025;-74
2021/04/01 10:21:00;;;;;;;24.00;9.80;;;25.60;32.90;;;;;;5054684;28;20103;-74
2021/04/01 10:23:26;;;;;;;26.38;10.05;;;25.90;33.10;;;;;;5054268;28;20101;-73
2021/04/01 10:26:07;;;;;;;17.17;9.27;;;26.10;31.80;;;;;;5036738;28;20029;-73
2021/04/01 10:28:40;;;;;;;19.67;9.40;;;25.90;31.40;;;;;;5054358;28;20056;-73
2021/04/01 10:31:12;;;;;;;23.42;9.25;;;25.90;31.90;;;;;;5054636;28;20036;-74
2021/04/01 10:34:00;;;;;;;23.88;9.85;;;26.30;31.30;;;;;;5036300;28;20032;-73
2021/04/01 10:36:28;;;;;;;19.63;8.35;;;26.30;31.40;;;;;;5054213;28;20036;-74
2021/04/01 10:39:09;;;;;;;20.08;8.63;;;26.20;32.20;;;;;;5036449;28;20035;-73
2021/04/01 10:41:52;;;;;;;21.90;9.07;;;26.20;31.80;;;;;;5054185;28;20023;-74
2021/04/01 10:44:21;;;;;;;22.17;7.75;;;26.80;31.20;;;;;;5036420;28;20099;-74
2021/04/01 10:46:54;;;;;;;20.70;8.20;;;27.00;31.00;;;;;;5035946;28;20025;-74
2021/04/01 10:49:25;;;;;;;22.35;9.43;;;27.30;31.10;;;;;;5054278;28;20025;-72
2021/04/01 10:51:54;;;;;;;14.35;7.47;;;27.40;31.00;;;;;;5036018;28;20122;-73
2021/04/01 10:54:20;;;;;;;20.45;9.50;;;27.60;31.20;;;;;;5053837;28;20428;-71
2021/04/01 10:56:54;;;;;;;20.13;8.15;;;27.40;30.20;;;;;;5053786;28;20036;-72
2021/04/01 10:59:35;;;;;;;16.52;8.93;;;26.80;31.00;;;;;;5036013;28;20025;-72
2021/04/01 11:02:08;;;;;;;15.50;7.28;;;27.10;30.70;;;;;;5053671;28;20063;-72
2021/04/01 11:04:35;;;;;;;20.25;8.98;;;27.40;29.60;;;;;;5036148;28;20107;-71
2021/04/01 11:07:03;;;;;;;18.13;7.07;;;27.80;29.90;;;;;;5036001;28;20025;-72
2021/04/01 11:09:30;;;;;;;14.82;5.97;;;28.00;29.30;;;;;;5035686;28;20102;-72
2021/04/01 11:12:19;;;;;;;16.83;6.47;;;28.00;28.80;;;;;;5053716;28;20024;-71
2021/04/01 11:14:45;;;;;;;19.17;7.07;;;28.10;28.30;;;;;;5053356;28;20381;-72
2021/04/01 11:17:15;;;;;;;17.17;6.32;;;28.20;28.60;;;;;;5053465;28;20036;-72
2021/04/01 11:19:41;;;;;;;17.65;5.72;;;28.30;28.40;;;;;;5053413;28;20116;-72
2021/04/01 11:22:08;;;;;;;20.65;6.18;;;28.00;28.20;;;;;;5053495;28;20515;-72
2021/04/01 11:24:36;;;;;;;20.98;5.00;;;28.30;28.10;;;;;;5053193;28;20016;-72
2021/04/01 11:27:19;;;;;;;15.27;5.70;;;28.10;27.30;;;;;;5053267;28;20016;-73
2021/04/01 11:29:59;;;;;;;18.60;6.00;;;28.10;28.10;;;;;;5053235;28;20025;-72
2021/04/01 11:32:30;;;;;;;10.95;4.28;;;28.50;28.30;;;;;;5018759;28;20075;-72
2021/04/01 11:35:02;;;;;;;27.23;4.63;;;28.50;27.70;;;;;;5053224;28;20366;-72
2021/04/01 11:37:32;;;;;;;28.35;5.18;;;28.00;27.10;;;;;;5052594;28;20036;-72
2021/04/01 11:40:01;;;;;;;14.50;5.28;;;27.70;28.20;;;;;;5035185;28;20032;-72
2021/04/01 11:42:27;;;;;;;32.97;5.30;;;27.60;29.10;;;;;;5035101;28;20108;-72
2021/04/01 11:44:59;;;;;;;17.70;5.53;;;27.90;29.90;;;;;;5034750;28;20503;-72
2021/04/01 11:47:25;;;;;;;;;;;28.10;28.90;;;;;;5035533;28;20029;-72
2021/04/01 11:49:52;;;;;;;15.88;4.55;;;28.10;28.90;;;;;;5052882;28;19951;-72
2021/04/01 11:52:20;;;;;;;47.38;6.53;;;28.00;28.80;;;;;;5052472;28;20033;-72
2021/04/01 11:54:52;;;;;;;19.15;5.30;;;27.90;29.70;;;;;;5034541;28;20409;-72
2021/04/01 11:57:22;;;;;;;11.02;4.70;;;27.70;28.50;;;;;;5052719;28;20028;-72
2021/04/01 12:00:02;;;;;;;20.63;4.55;;;27.70;28.90;;;;;;5032546;28;20079;-72
2021/04/01 12:02:31;;;;;;;10.87;4.90;;;27.70;29.40;;;;;;5046324;28;20022;-72
2021/04/01 12:05:00;;;;;;;12.55;4.70;;;28.30;29.50;;;;;;5052313;28;20271;-73
2021/04/01 12:07:29;;;;;;;10.23;4.05;;;28.50;29.20;;;;;;5052638;28;20021;-72
2021/04/01 12:09:55;;;;;;;7.97;3.75;;;28.40;28.60;;;;;;5052373;28;20017;-73
2021/04/01 12:12:33;;;;;;;14.35;4.20;;;28.40;29.10;;;;;;5052603;28;20033;-72
2021/04/01 12:15:00;;;;;;;22.05;5.18;;;28.60;29.00;;;;;;5052302;28;20025;-74
2021/04/01 12:17:34;;;;;;;46.92;6.40;;;28.90;28.90;;;;;;5052439;28;20025;-72
2021/04/01 12:20:00;;;;;;;9.48;4.30;;;28.50;28.90;;;;;;5052292;28;20066;-73
2021/04/01 12:22:31;;;;;;;17.13;4.93;;;28.60;28.80;;;;;;5052116;28;20032;-72
2021/04/01 12:24:58;;;;;;;14.45;5.00;;;28.00;29.20;;;;;;5052302;28;20358;-72
2021/04/01 12:27:31;;;;;;;19.80;4.85;;;27.90;29.70;;;;;;5052025;28;20017;-72
2021/04/01 12:29:59;;;;;;;10.85;4.03;;;27.60;30.20;;;;;;5052250;28;20021;-72
2021/04/01 12:32:29;;;;;;;12.98;4.68;;;26.80;30.30;;;;;;5052010;28;20029;-72
2021/04/01 12:35:15;;;;;;;14.27;4.43;;;26.80;31.00;;;;;;5034397;28;20029;-71
2021/04/01 12:37:43;;;;;;;31.80;5.65;;;26.30;31.70;;;;;;5033802;28;20047;-72
2021/04/01 12:40:11;;;;;;;17.85;4.15;;;26.30;32.60;;;;;;5042447;28;20383;-71
2021/04/01 12:42:38;;;;;;;11.23;4.15;;;26.10;33.00;;;;;;5051760;28;20021;-71
2021/04/01 12:45:14;;;;;;;17.92;4.88;;;25.70;34.00;;;;;;5051634;28;20484;-72
2021/04/01 12:47:41;;;;;;;21.45;5.00;;;25.50;33.60;;;;;;5051635;28;20021;-72
2021/04/01 12:50:08;;;;;;;17.95;5.32;;;25.70;33.10;;;;;;5051208;28;20029;-73
2021/04/01 12:52:49;;;;;;;23.48;5.65;;;25.80;33.50;;;;;;5033673;28;20033;-73
2021/04/01 12:58:34;;;;;;;8.10;3.90;;;25.90;33.30;;;;;;5033313;28;20036;-72
2021/04/01 13:01:23;;;;;;;15.75;3.10;;;25.70;33.30;;;;;;5051358;28;20032;-72
2021/04/01 13:03:50;;;;;;;17.98;4.35;;;25.50;33.10;;;;;;5015365;28;20017;-72
2021/04/01 13:06:19;;;;;;;35.05;10.98;;;25.50;33.70;;;;;;5050162;28;20389;-72
2021/04/01 13:11:13;;;;;;;28.85;8.85;;;24.90;34.80;;;;;;5051054;28;20413;-71
2021/04/01 13:13:40;;;;;;;23.55;6.43;;;24.70;35.40;;;;;;5051330;28;20120;-73
2021/04/01 13:16:06;;;;;;;13.10;5.03;;;24.60;35.60;;;;;;5033324;28;20032;-71
2021/04/01 13:18:32;;;;;;;9.48;3.67;;;24.40;35.40;;;;;;5050767;28;20380;-73
2021/04/01 13:20:59;;;;;;;14.68;3.38;;;24.20;35.20;;;;;;5051160;28;20028;-73
2021/04/01 13:25:54;;;;;;;11.93;2.80;;;24.20;35.20;;;;;;5051439;28;20501;-73
2021/04/01 13:28:20;;;;;;;12.00;3.15;;;24.20;34.70;;;;;;5051250;28;20469;-73
2021/04/01 13:30:48;;;;;;;8.15;3.40;;;24.30;35.00;;;;;;5033352;28;20021;-73
2021/04/01 13:33:23;;;;;;;10.85;3.38;;;24.30;35.20;;;;;;5051406;28;20535;-73
2021/04/01 13:38:24;;;;;;;14.00;3.30;;;24.50;35.10;;;;;;5051195;28;20037;-72
2021/04/01 13:40:51;;;;;;;12.30;3.30;;;24.50;34.30;;;;;;5033078;28;20513;-73
2021/04/01 13:43:28;;;;;;;7.68;3.22;;;24.50;35.20;;;;;;5051282;28;20100;-73
2021/04/01 13:45:55;;;;;;;11.73;3.45;;;24.20;35.30;;;;;;5051056;28;20404;-73
2021/04/01 13:48:28;;;;;;;11.63;3.30;;;24.00;35.20;;;;;;5051187;28;20025;-73
2021/04/01 13:51:05;;;;;;;11.73;3.47;;;23.90;35.90;;;;;;5050853;28;20017;-73
2021/04/01 13:56:25;;;;;;;10.85;3.08;;;24.20;36.20;;;;;;5050991;28;20021;-73
2021/04/01 14:09:31;;;;;;;16.25;3.47;;;23.70;36.00;;;;;;5050607;28;20033;-73
2021/04/01 14:11:59;;;;;;;14.55;3.10;;;23.60;36.10;;;;;;5032907;28;20400;-72
2021/04/01 14:14:26;;;;;;;15.05;3.90;;;23.80;35.70;;;;;;5032889;28;20504;-73
2021/04/01 14:16:54;;;;;;;11.07;3.58;;;23.70;35.80;;;;;;5051634;28;20477;-72
2021/04/01 14:19:22;;;;;;;8.48;3.40;;;23.70;36.60;;;;;;5036401;28;20025;-73
2021/04/01 14:21:54;;;;;;;12.90;3.25;;;23.60;36.60;;;;;;5054792;28;20377;-73
2021/04/01 14:24:25;;;;;;;10.15;3.75;;;23.40;36.90;;;;;;5037156;28;20043;-74
2021/04/01 14:27:05;;;;;;;16.23;3.67;;;23.60;36.90;;;;;;5054558;28;20041;-73
2021/04/01 14:29:33;;;;;;;19.98;3.65;;;23.50;37.20;;;;;;5054307;28;20032;-72
2021/04/01 14:32:00;;;;;;;9.60;3.25;;;23.40;36.80;;;;;;5036097;28;20499;-73
2021/04/01 14:34:27;;;;;;;8.10;3.08;;;23.30;37.30;;;;;;5054203;28;20075;-73
2021/04/01 14:36:56;;;;;;;15.63;4.10;;;23.20;37.50;;;;;;5053983;28;20460;-73
2021/04/01 14:39:25;;;;;;;16.25;3.20;;;23.20;38.10;;;;;;5054305;28;20059;-73
2021/04/01 14:42:03;;;;;;;11.82;2.35;;;23.30;37.20;;;;;;5054063;28;20457;-73
2021/04/01 14:44:31;;;;;;;10.05;3.05;;;23.30;36.90;;;;;;5054202;28;20017;-71
2021/04/01 14:46:57;;;;;;;8.45;2.97;;;23.10;37.10;;;;;;5049603;28;20025;-73
2021/04/01 14:49:23;;;;;;;12.60;3.35;;;23.30;37.20;;;;;;5053616;28;20366;-72
2021/04/01 14:51:49;;;;;;;10.63;2.80;;;23.30;37.20;;;;;;5053938;28;20064;-72
2021/04/01 14:54:19;;;;;;;11.18;3.08;;;23.30;37.10;;;;;;5053992;28;20107;-73
2021/04/01 14:56:49;;;;;;;16.30;3.60;;;23.30;36.80;;;;;;5053873;28;20575;-73
2021/04/01 14:59:19;;;;;;;13.90;3.67;;;23.30;37.10;;;;;;5053110;28;20109;-75
2021/04/01 15:01:46;;;;;;;10.50;3.25;;;23.20;37.60;;;;;;5035986;28;20032;-73
2021/04/01 15:04:16;;;;;;;12.18;3.30;;;23.20;37.70;;;;;;5036108;28;20508;-73